createdAt,value
2023-01-26T00:02:09.379Z,23.17
2023-01-26T00:04:36.849Z,24.23
2023-01-26T00:07:04.328Z,23.93
2023-01-26T00:09:31.805Z,23.83
2023-01-26T00:11:59.285Z,22.40
2023-01-26T00:14:26.847Z,21.43
2023-01-26T00:16:55.674Z,22.20
2023-01-26T00:19:23.162Z,22.53
2023-01-26T00:21:50.603Z,21.43
2023-01-26T00:24:18.100Z,20.47
2023-01-26T00:26:45.583Z,22.40
2023-01-26T00:29:13.032Z,24.03
2023-01-26T00:31:40.522Z,23.80
2023-01-26T00:34:09.372Z,20.60
2023-01-26T00:36:37.616Z,19.93
2023-01-26T00:39:05.123Z,18.80
2023-01-26T00:41:50.138Z,19.97
2023-01-26T00:44:17.597Z,20.90
2023-01-26T00:46:45.125Z,19.93
2023-01-26T00:49:14.053Z,19.50
2023-01-26T00:51:41.522Z,19.53
2023-01-26T00:54:09.015Z,18.17
2023-01-26T00:56:36.541Z,18.60
2023-01-26T00:59:04.059Z,20.33
2023-01-26T01:01:31.537Z,17.97
2023-01-26T01:03:59.101Z,18.23
2023-01-26T01:06:27.895Z,18.90
2023-01-26T01:08:55.395Z,17.83
2023-01-26T01:11:22.858Z,18.37
2023-01-26T01:13:50.356Z,19.30
2023-01-26T01:16:17.990Z,18.80
2023-01-26T01:18:45.902Z,17.20
2023-01-26T01:21:15.557Z,17.13
2023-01-26T01:23:44.979Z,16.73
2023-01-26T01:26:13.382Z,19.00
2023-01-26T01:28:41.130Z,17.43
2023-01-26T01:31:10.920Z,16.03
2023-01-26T01:33:38.886Z,17.13
2023-01-26T01:36:08.392Z,17.63
2023-01-26T01:38:36.133Z,18.40
2023-01-26T01:41:05.341Z,18.63
2023-01-26T01:43:33.184Z,18.07
2023-01-26T01:46:02.441Z,18.27
2023-01-26T01:48:36.463Z,17.17
2023-01-26T01:51:07.825Z,18.03
2023-01-26T01:53:40.053Z,18.63
2023-01-26T01:56:19.085Z,17.77
2023-01-26T01:58:47.374Z,17.20
2023-01-26T02:01:14.878Z,17.40
2023-01-26T02:03:44.352Z,18.57
2023-01-26T02:06:15.356Z,16.90
2023-01-26T02:08:46.601Z,16.80
2023-01-26T02:11:19.746Z,17.13
2023-01-26T02:13:49.834Z,16.80
2023-01-26T02:16:18.161Z,17.43
2023-01-26T02:18:46.600Z,15.43
2023-01-26T02:21:17.473Z,16.73
2023-01-26T02:24:06.343Z,17.63
2023-01-26T02:26:36.833Z,17.37
2023-01-26T02:29:06.349Z,15.97
2023-01-26T02:31:33.928Z,14.60
2023-01-26T02:34:01.458Z,17.07
2023-01-26T02:36:31.398Z,17.07
2023-01-26T02:39:15.551Z,16.57
2023-01-26T02:42:02.145Z,16.60
2023-01-26T02:44:30.551Z,16.60
2023-01-26T02:46:58.012Z,17.27
2023-01-26T02:49:43.163Z,16.80
2023-01-26T02:52:10.827Z,18.00
2023-01-26T02:54:55.862Z,17.50
2023-01-26T02:57:25.923Z,17.57
2023-01-26T02:59:53.397Z,17.77
2023-01-26T03:02:21.374Z,18.33
2023-01-26T03:04:48.873Z,17.07
2023-01-26T03:07:16.624Z,17.47
2023-01-26T03:09:44.143Z,15.70
2023-01-26T03:12:11.657Z,15.17
2023-01-26T03:14:40.499Z,14.60
2023-01-26T03:17:08.076Z,13.30
2023-01-26T03:20:08.037Z,14.27
2023-01-26T03:22:53.013Z,14.67
2023-01-26T03:25:38.429Z,14.47
2023-01-26T03:28:06.077Z,15.80
2023-01-26T03:30:34.945Z,14.47
2023-01-26T03:33:02.466Z,14.03
2023-01-26T03:35:29.915Z,13.80
2023-01-26T03:37:57.402Z,13.87
2023-01-26T03:40:42.785Z,15.10
2023-01-26T03:43:28.089Z,16.73
2023-01-26T03:46:14.303Z,17.67
2023-01-26T03:48:59.710Z,16.07
2023-01-26T03:51:44.744Z,16.77
2023-01-26T03:54:30.123Z,16.50
2023-01-26T03:56:57.602Z,18.37
2023-01-26T03:59:37.995Z,15.80
2023-01-26T04:02:25.509Z,15.73
2023-01-26T04:05:11.332Z,15.17
2023-01-26T04:07:56.385Z,13.57
2023-01-26T04:10:24.808Z,14.03
2023-01-26T04:13:10.358Z,12.93
2023-01-26T04:15:56.186Z,14.83
2023-01-26T04:18:42.812Z,13.87
2023-01-26T04:21:28.989Z,15.07
2023-01-26T04:23:58.175Z,14.53
2023-01-26T04:26:26.878Z,13.60
2023-01-26T04:28:54.619Z,12.87
2023-01-26T04:31:22.263Z,13.87
2023-01-26T04:33:51.116Z,14.80
2023-01-26T04:36:18.639Z,13.70
2023-01-26T04:38:46.107Z,13.43
2023-01-26T04:41:13.583Z,13.87
2023-01-26T04:43:41.051Z,14.57
2023-01-26T04:46:09.516Z,16.37
2023-01-26T04:48:37.793Z,15.27
2023-01-26T04:51:09.180Z,13.97
2023-01-26T04:53:36.718Z,13.47
2023-01-26T04:56:04.803Z,14.27
2023-01-26T04:58:33.351Z,14.63
2023-01-26T05:01:00.828Z,13.50
2023-01-26T05:03:28.356Z,17.83
2023-01-26T05:05:56.171Z,17.13
2023-01-26T05:08:24.994Z,12.87
2023-01-26T05:10:52.479Z,14.20
2023-01-26T05:13:20.234Z,14.67
2023-01-26T05:15:47.931Z,14.33
2023-01-26T05:18:15.980Z,13.27
2023-01-26T05:20:43.477Z,13.50
2023-01-26T05:23:11.018Z,18.23
2023-01-26T05:25:39.852Z,18.30
2023-01-26T05:28:07.331Z,15.77
2023-01-26T05:30:34.824Z,15.93
2023-01-26T05:33:03.043Z,24.40
2023-01-26T05:35:30.478Z,19.23
2023-01-26T05:37:57.944Z,17.10
2023-01-26T05:40:26.070Z,16.13
2023-01-26T05:42:55.609Z,14.63
2023-01-26T05:45:23.111Z,15.83
2023-01-26T05:47:50.610Z,15.50
2023-01-26T05:50:18.573Z,14.47
2023-01-26T05:52:46.579Z,14.17
2023-01-26T05:55:14.564Z,14.33
2023-01-26T05:57:42.560Z,13.93
2023-01-26T06:00:14.002Z,14.23
2023-01-26T06:02:42.143Z,14.90
2023-01-26T06:05:10.486Z,15.23
2023-01-26T06:07:38.048Z,16.47
2023-01-26T06:10:06.263Z,14.50
2023-01-26T06:12:35.431Z,15.50
2023-01-26T06:15:03.739Z,16.90
2023-01-26T06:17:32.779Z,17.20
2023-01-26T06:20:00.307Z,16.30
2023-01-26T06:22:27.815Z,17.00
2023-01-26T06:24:55.274Z,15.10
2023-01-26T06:27:22.719Z,14.20
2023-01-26T06:29:50.193Z,13.57
2023-01-26T06:32:17.654Z,14.47
2023-01-26T06:34:46.444Z,14.63
2023-01-26T06:37:14.811Z,15.80
2023-01-26T06:39:42.517Z,17.90
2023-01-26T06:42:10.066Z,16.80
2023-01-26T06:44:37.520Z,16.00
2023-01-26T06:47:07.073Z,21.83
2023-01-26T06:49:34.559Z,26.30
2023-01-26T06:52:20.355Z,34.47
2023-01-26T06:54:49.589Z,16.07
2023-01-26T06:57:17.062Z,15.90
2023-01-26T06:59:44.563Z,15.03
2023-01-26T07:02:19.157Z,13.63
2023-01-26T07:04:47.192Z,13.30
2023-01-26T07:07:16.261Z,17.07
2023-01-26T07:09:43.702Z,16.20
2023-01-26T07:12:11.155Z,15.07
2023-01-26T07:14:38.684Z,14.53
2023-01-26T07:17:06.159Z,14.37
2023-01-26T07:19:33.888Z,15.73
2023-01-26T07:22:01.935Z,15.80
2023-01-26T07:24:31.194Z,15.33
2023-01-26T07:26:58.879Z,15.60
2023-01-26T07:29:26.373Z,13.77
2023-01-26T07:31:53.919Z,12.67
2023-01-26T07:34:21.425Z,12.40
2023-01-26T07:36:48.896Z,13.10
2023-01-26T07:39:16.568Z,13.27
2023-01-26T07:41:45.374Z,13.33
2023-01-26T07:44:13.296Z,13.53
2023-01-26T07:46:41.440Z,12.90
2023-01-26T07:49:10.066Z,13.43
2023-01-26T07:51:38.029Z,12.37
2023-01-26T07:54:05.576Z,11.93
2023-01-26T07:56:33.603Z,15.50
2023-01-26T07:59:03.905Z,14.43
2023-01-26T08:01:31.539Z,14.67
2023-01-26T08:03:59.077Z,14.63
2023-01-26T08:06:26.623Z,19.23
2023-01-26T08:08:54.816Z,16.40
2023-01-26T08:11:24.305Z,12.63
2023-01-26T08:13:51.816Z,12.30
2023-01-26T08:16:20.703Z,12.67
2023-01-26T08:18:48.904Z,11.70
2023-01-26T08:21:18.881Z,12.27
2023-01-26T08:23:49.642Z,12.63
2023-01-26T08:26:18.402Z,11.53
2023-01-26T08:28:46.482Z,11.93
2023-01-26T08:31:17.857Z,11.90
2023-01-26T08:33:50.584Z,12.23
2023-01-26T08:36:21.132Z,11.97
2023-01-26T08:38:49.949Z,13.73
2023-01-26T08:41:17.443Z,15.83
2023-01-26T08:43:45.022Z,13.27
2023-01-26T08:46:12.521Z,12.27
2023-01-26T08:48:40.095Z,16.20
2023-01-26T08:51:09.352Z,17.07
2023-01-26T08:53:38.042Z,18.50
2023-01-26T08:56:07.463Z,31.00
2023-01-26T08:58:35.601Z,35.03
2023-01-26T09:01:05.662Z,28.40
2023-01-26T09:03:33.200Z,10.33
2023-01-26T09:06:01.351Z,14.20
2023-01-26T09:08:30.147Z,17.73
2023-01-26T09:10:58.029Z,12.70
2023-01-26T09:13:25.578Z,10.40
2023-01-26T09:15:53.379Z,10.50
2023-01-26T09:18:20.840Z,10.33
2023-01-26T09:20:49.739Z,10.23
2023-01-26T09:23:18.141Z,10.33
2023-01-26T09:25:46.943Z,10.57
2023-01-26T09:28:14.428Z,10.03
2023-01-26T09:30:41.983Z,9.43
2023-01-26T09:33:09.734Z,11.70
2023-01-26T09:35:37.200Z,11.37
2023-01-26T09:38:04.652Z,11.17
2023-01-26T09:40:41.416Z,13.90
2023-01-26T09:43:22.959Z,9.73
2023-01-26T09:46:01.172Z,8.13
2023-01-26T09:48:38.974Z,14.67
2023-01-26T09:51:14.681Z,12.97
2023-01-26T09:53:47.573Z,15.47
2023-01-26T09:56:19.808Z,17.57
2023-01-26T09:58:54.668Z,24.57
2023-01-26T10:01:28.792Z,22.47
2023-01-26T10:04:03.276Z,16.70
2023-01-26T10:06:33.130Z,11.87
2023-01-26T10:09:03.754Z,9.77
2023-01-26T10:11:38.078Z,9.70
2023-01-26T10:14:14.199Z,11.33
2023-01-26T10:16:44.538Z,11.50
2023-01-26T10:19:17.725Z,9.73
2023-01-26T10:21:50.379Z,8.77
2023-01-26T10:24:22.693Z,10.03
2023-01-26T10:26:53.438Z,13.20
2023-01-26T10:29:23.100Z,18.00
2023-01-26T10:31:50.660Z,20.63
2023-01-26T10:34:23.398Z,19.27
2023-01-26T10:36:51.145Z,11.63
2023-01-26T10:39:19.447Z,8.37
2023-01-26T10:41:58.872Z,7.57
2023-01-26T10:44:33.865Z,7.33
2023-01-26T10:47:07.318Z,14.17
2023-01-26T10:49:34.862Z,8.10
2023-01-26T10:52:17.349Z,7.20
2023-01-26T10:54:45.674Z,7.07
2023-01-26T10:57:20.043Z,7.00
2023-01-26T10:59:56.743Z,8.37
2023-01-26T11:02:28.507Z,7.00
2023-01-26T11:05:15.956Z,7.80
2023-01-26T11:07:45.079Z,6.37
2023-01-26T11:10:34.471Z,5.93
2023-01-26T11:13:18.348Z,7.10
2023-01-26T11:15:48.909Z,7.77
2023-01-26T11:18:24.477Z,9.80
2023-01-26T11:20:58.197Z,7.60
2023-01-26T11:23:58.354Z,7.67
2023-01-26T11:26:49.591Z,10.37
2023-01-26T11:29:36.720Z,18.10
2023-01-26T11:32:14.607Z,8.17
2023-01-26T11:34:55.982Z,8.13
2023-01-26T11:37:39.378Z,7.97
2023-01-26T11:40:20.184Z,8.03
2023-01-26T11:42:59.409Z,7.93
2023-01-26T11:45:33.976Z,7.07
2023-01-26T11:48:15.689Z,7.30
2023-01-26T11:50:48.624Z,7.00
2023-01-26T11:53:49.903Z,6.80
2023-01-26T11:56:31.631Z,8.30
2023-01-26T11:59:05.469Z,9.30
2023-01-26T12:01:37.318Z,7.77
2023-01-26T12:04:06.313Z,6.90
2023-01-26T12:06:38.323Z,7.40
2023-01-26T12:09:10.654Z,8.33
2023-01-26T12:11:43.097Z,7.60
2023-01-26T12:14:23.200Z,7.33
2023-01-26T12:17:16.778Z,8.27
2023-01-26T12:19:55.596Z,6.43
2023-01-26T12:22:32.098Z,6.40
2023-01-26T12:25:19.113Z,6.73
2023-01-26T12:27:53.550Z,6.53
2023-01-26T12:30:29.427Z,6.57
2023-01-26T12:32:57.218Z,7.00
2023-01-26T12:35:37.660Z,6.97
2023-01-26T12:38:18.329Z,6.80
2023-01-26T12:40:54.677Z,7.27
2023-01-26T12:43:37.870Z,7.03
2023-01-26T12:46:08.560Z,6.83
2023-01-26T12:48:42.871Z,7.00
2023-01-26T12:51:16.623Z,7.60
2023-01-26T12:53:55.460Z,7.60
2023-01-26T12:56:26.822Z,8.10
2023-01-26T12:58:58.389Z,8.87
2023-01-26T13:01:28.929Z,8.53
2023-01-26T13:03:58.866Z,8.57
2023-01-26T13:06:29.174Z,10.07
2023-01-26T13:09:18.684Z,8.73
2023-01-26T13:11:56.302Z,7.03
2023-01-26T13:14:56.641Z,7.37
2023-01-26T13:17:52.686Z,7.67
2023-01-26T13:20:26.387Z,10.83
2023-01-26T13:22:56.216Z,7.97
2023-01-26T13:25:32.168Z,7.63
2023-01-26T13:28:01.312Z,7.23
2023-01-26T13:30:43.188Z,7.07
2023-01-26T13:33:17.792Z,8.17
2023-01-26T13:35:46.829Z,7.13
2023-01-26T13:38:22.807Z,6.43
2023-01-26T13:40:51.263Z,6.70
2023-01-26T13:43:43.217Z,8.23
2023-01-26T13:46:18.859Z,7.50
2023-01-26T13:48:48.656Z,8.67
2023-01-26T13:51:19.367Z,7.20
2023-01-26T13:54:01.482Z,7.07
2023-01-26T13:56:32.307Z,6.70
2023-01-26T13:59:13.085Z,7.20
2023-01-26T14:01:45.346Z,7.30
2023-01-26T14:04:20.847Z,7.53
2023-01-26T14:06:52.469Z,7.67
2023-01-26T14:09:20.138Z,8.13
2023-01-26T14:11:56.586Z,7.13
2023-01-26T14:14:27.897Z,7.80
2023-01-26T14:16:55.536Z,7.40
2023-01-26T14:19:23.977Z,6.47
2023-01-26T14:21:53.952Z,7.80
2023-01-26T14:24:27.288Z,7.10
2023-01-26T14:26:54.888Z,7.20
2023-01-26T14:29:25.145Z,6.90
2023-01-26T14:31:56.022Z,5.70
2023-01-26T14:34:25.824Z,6.20
2023-01-26T14:37:07.318Z,6.53
2023-01-26T14:39:34.923Z,6.57
2023-01-26T14:42:03.375Z,6.47
2023-01-26T14:44:31.078Z,6.80
2023-01-26T14:47:05.684Z,7.10
2023-01-26T14:49:43.720Z,6.37
2023-01-26T14:52:24.898Z,6.10
2023-01-26T14:54:54.358Z,6.77
2023-01-26T14:57:24.779Z,6.30
2023-01-26T14:59:57.093Z,5.63
2023-01-26T15:02:28.408Z,6.47
2023-01-26T15:04:59.047Z,5.93
2023-01-26T15:07:34.914Z,6.03
2023-01-26T15:10:03.290Z,6.30
2023-01-26T15:12:35.223Z,6.60
2023-01-26T15:15:03.484Z,6.53
2023-01-26T15:17:39.130Z,6.60
2023-01-26T15:20:27.398Z,6.50
2023-01-26T15:22:55.253Z,7.20
2023-01-26T15:25:26.122Z,6.80
2023-01-26T15:27:58.528Z,5.87
2023-01-26T15:30:28.173Z,6.47
2023-01-26T15:32:57.607Z,5.97
2023-01-26T15:35:26.826Z,6.03
2023-01-26T15:38:02.087Z,5.93
2023-01-26T15:40:30.252Z,6.07
2023-01-26T15:43:12.557Z,5.93
2023-01-26T15:45:43.346Z,6.67
2023-01-26T15:48:12.164Z,10.40
2023-01-26T15:50:39.628Z,7.00
2023-01-26T15:53:07.135Z,7.10
2023-01-26T15:55:34.838Z,8.20
2023-01-26T15:58:02.280Z,6.67
2023-01-26T16:00:29.744Z,7.53
2023-01-26T16:02:57.341Z,6.97
2023-01-26T16:05:27.627Z,8.20
2023-01-26T16:07:55.122Z,8.13
2023-01-26T16:10:22.596Z,7.03
2023-01-26T16:12:50.765Z,7.23
2023-01-26T16:15:35.914Z,8.10
2023-01-26T16:18:03.440Z,10.53
2023-01-26T16:20:32.494Z,7.07
2023-01-26T16:23:00.567Z,7.33
2023-01-26T16:25:30.007Z,7.67
2023-01-26T16:27:58.703Z,10.40
2023-01-26T16:30:27.201Z,6.90
2023-01-26T16:32:54.663Z,6.57
2023-01-26T16:35:24.062Z,7.00
2023-01-26T16:37:53.046Z,8.10
2023-01-26T16:40:20.835Z,8.23
2023-01-26T16:42:51.888Z,8.23
2023-01-26T16:45:21.537Z,8.17
2023-01-26T16:47:51.156Z,7.80
2023-01-26T16:50:19.355Z,8.13
2023-01-26T16:52:47.139Z,7.47
2023-01-26T16:55:16.899Z,6.87
2023-01-26T16:57:45.864Z,6.53
2023-01-26T17:00:17.008Z,7.13
2023-01-26T17:02:47.446Z,7.40
2023-01-26T17:05:16.433Z,7.00
2023-01-26T17:07:44.152Z,6.50
2023-01-26T17:10:13.880Z,7.93
2023-01-26T17:12:43.165Z,7.77
2023-01-26T17:15:12.940Z,7.67
2023-01-26T17:17:42.269Z,8.13
2023-01-26T17:20:19.401Z,7.73
2023-01-26T17:22:48.403Z,7.40
2023-01-26T17:25:17.183Z,7.60
2023-01-26T17:27:49.625Z,7.47
2023-01-26T17:30:18.425Z,7.10
2023-01-26T17:32:45.917Z,7.00
2023-01-26T17:35:13.583Z,7.23
2023-01-26T17:37:41.361Z,7.83
2023-01-26T17:40:10.515Z,7.60
2023-01-26T17:42:38.074Z,7.53
2023-01-26T17:45:09.799Z,7.27
2023-01-26T17:47:38.598Z,8.17
2023-01-26T17:50:07.036Z,8.17
2023-01-26T17:52:36.422Z,7.50
2023-01-26T17:55:06.153Z,8.07
2023-01-26T17:57:34.254Z,8.63
2023-01-26T18:00:01.738Z,7.67
2023-01-26T18:02:30.666Z,8.50
2023-01-26T18:04:58.192Z,7.97
2023-01-26T18:07:25.669Z,7.87
2023-01-26T18:09:53.157Z,7.80
2023-01-26T18:12:20.615Z,7.93
2023-01-26T18:14:48.381Z,8.50
2023-01-26T18:17:15.880Z,9.37
2023-01-26T18:19:44.837Z,8.77
2023-01-26T18:22:12.375Z,8.70
2023-01-26T18:24:39.872Z,9.20
2023-01-26T18:27:07.541Z,9.33
2023-01-26T18:29:35.024Z,9.63
2023-01-26T18:32:02.534Z,9.63
2023-01-26T18:34:30.107Z,9.43
2023-01-26T18:36:58.918Z,11.43
2023-01-26T18:39:27.623Z,10.23
2023-01-26T18:41:55.147Z,10.10
2023-01-26T18:44:22.679Z,10.30
2023-01-26T18:46:50.259Z,11.67
2023-01-26T18:49:17.984Z,14.43
2023-01-26T18:51:48.172Z,12.57
2023-01-26T18:54:18.569Z,14.33
2023-01-26T18:56:46.835Z,15.37
2023-01-26T18:59:14.350Z,22.93
2023-01-26T19:01:43.604Z,31.33
2023-01-26T19:04:11.119Z,19.13
2023-01-26T19:06:38.607Z,13.27
2023-01-26T19:09:09.309Z,11.70
2023-01-26T19:11:39.565Z,23.83
2023-01-26T19:14:08.314Z,19.90
2023-01-26T19:16:35.964Z,14.00
2023-01-26T19:19:04.871Z,18.33
2023-01-26T19:21:33.946Z,18.13
2023-01-26T19:24:02.462Z,11.23
2023-01-26T19:26:30.661Z,12.93
2023-01-26T19:28:59.878Z,15.90
2023-01-26T19:31:28.555Z,13.90
2023-01-26T19:33:57.470Z,11.20
2023-01-26T19:36:25.885Z,12.47
2023-01-26T19:38:53.530Z,12.70
2023-01-26T19:41:22.236Z,12.03
2023-01-26T19:43:50.413Z,18.77
2023-01-26T19:46:20.108Z,14.03
2023-01-26T19:48:48.040Z,12.00
2023-01-26T19:51:17.467Z,15.47
2023-01-26T19:53:46.616Z,14.60
2023-01-26T19:56:17.776Z,16.73
2023-01-26T19:58:50.559Z,19.60
2023-01-26T20:01:20.395Z,11.67
2023-01-26T20:03:51.409Z,11.93
2023-01-26T20:06:21.804Z,13.63
2023-01-26T20:08:49.943Z,12.90
2023-01-26T20:11:19.694Z,12.47
2023-01-26T20:13:47.215Z,13.63
2023-01-26T20:16:14.739Z,12.40
2023-01-26T20:18:43.608Z,13.87
2023-01-26T20:21:11.071Z,11.60
2023-01-26T20:23:45.553Z,14.07
2023-01-26T20:26:19.779Z,14.77
2023-01-26T20:28:47.616Z,16.13
2023-01-26T20:31:18.940Z,12.80
2023-01-26T20:33:49.410Z,14.10
2023-01-26T20:36:18.671Z,17.00
2023-01-26T20:38:47.293Z,15.33
2023-01-26T20:41:16.433Z,15.63
2023-01-26T20:43:58.743Z,30.43
2023-01-26T20:46:28.095Z,52.77
2023-01-26T20:48:57.521Z,36.40
2023-01-26T20:51:29.127Z,24.73
2023-01-26T20:53:57.434Z,19.20
2023-01-26T20:56:24.949Z,15.70
2023-01-26T20:58:54.055Z,13.90
2023-01-26T21:01:22.732Z,13.67
2023-01-26T21:03:51.199Z,15.57
2023-01-26T21:06:21.852Z,14.50
2023-01-26T21:08:52.251Z,13.73
2023-01-26T21:11:20.085Z,14.43
2023-01-26T21:13:48.342Z,12.10
2023-01-26T21:16:17.682Z,12.70
2023-01-26T21:18:46.082Z,12.17
2023-01-26T21:21:17.438Z,11.50
2023-01-26T21:23:46.899Z,11.80
2023-01-26T21:26:16.467Z,9.97
2023-01-26T21:28:44.140Z,11.10
2023-01-26T21:31:14.482Z,11.47
2023-01-26T21:33:43.709Z,11.00
2023-01-26T21:36:13.417Z,11.30
2023-01-26T21:38:42.978Z,12.47
2023-01-26T21:41:31.479Z,14.83
2023-01-26T21:44:00.256Z,9.37
2023-01-26T21:46:28.329Z,11.00
2023-01-26T21:48:55.840Z,11.53
2023-01-26T21:51:41.977Z,11.07
2023-01-26T21:54:09.766Z,11.00
2023-01-26T21:56:38.688Z,10.80
2023-01-26T21:59:07.581Z,10.43
2023-01-26T22:01:36.999Z,10.93
2023-01-26T22:04:07.501Z,11.70
2023-01-26T22:06:36.462Z,11.10
2023-01-26T22:09:04.445Z,12.40
2023-01-26T22:11:31.952Z,11.33
2023-01-26T22:14:00.826Z,11.40
2023-01-26T22:16:28.845Z,11.90
2023-01-26T22:18:56.450Z,12.43
2023-01-26T22:21:24.413Z,11.40
2023-01-26T22:23:51.901Z,10.97
2023-01-26T22:26:21.377Z,10.80
2023-01-26T22:28:51.484Z,11.93
2023-01-26T22:31:23.123Z,11.57
2023-01-26T22:33:51.302Z,11.57
2023-01-26T22:36:19.672Z,11.83
2023-01-26T22:38:47.885Z,12.10
2023-01-26T22:41:19.536Z,12.83
2023-01-26T22:43:48.012Z,10.97
2023-01-26T22:46:16.393Z,11.17
2023-01-26T22:48:45.347Z,11.70
2023-01-26T22:51:17.267Z,12.73
2023-01-26T22:53:45.895Z,12.63
2023-01-26T22:56:13.380Z,12.73
2023-01-26T22:58:56.629Z,12.67
2023-01-26T23:01:26.491Z,13.50
2023-01-26T23:03:56.144Z,12.63
2023-01-26T23:06:24.609Z,12.60
2023-01-26T23:08:52.090Z,13.30
2023-01-26T23:11:22.135Z,12.77
2023-01-26T23:13:51.397Z,13.43
2023-01-26T23:16:19.426Z,11.80
2023-01-26T23:18:46.953Z,12.23
2023-01-26T23:21:15.998Z,11.50
2023-01-26T23:23:43.456Z,10.37
2023-01-26T23:26:11.514Z,11.30
2023-01-26T23:28:42.129Z,12.73
2023-01-26T23:31:11.051Z,11.47
2023-01-26T23:33:39.646Z,13.23
2023-01-26T23:36:08.915Z,12.07
2023-01-26T23:38:37.824Z,10.30
2023-01-26T23:41:06.438Z,12.37
2023-01-26T23:43:33.900Z,11.73
2023-01-26T23:46:01.578Z,12.70
2023-01-26T23:48:29.259Z,14.17
2023-01-26T23:50:57.307Z,13.77
2023-01-26T23:53:25.512Z,12.50
2023-01-26T23:55:54.387Z,12.67
2023-01-26T23:58:22.038Z,12.87
